Welcome to Bucharest LROP 062030Z 14006KT 9999 FEW050CB 23/11 Q1009 NOSIG

Down The Danube 9, 11 April 2020

63

arrivals

44

departures

16z-21z

5 hours full ATC

 

Please note!

This website is intended for flight simulation only. Information presented here should not be used in real life flight situations.